createdAt,value
2018-09-04T00:00:40.129Z,82.65
2018-09-04T00:01:40.115Z,82.85
2018-09-04T00:02:40.105Z,82.65
2018-09-04T00:03:40.102Z,82.56
2018-09-04T00:04:40.096Z,83.14
2018-09-04T00:05:40.108Z,82.65
2018-09-04T00:06:40.072Z,82.94
2018-09-04T00:07:40.078Z,83.14
2018-09-04T00:08:40.049Z,83.04
2018-09-04T00:09:40.055Z,83.14
2018-09-04T00:10:40.042Z,82.27
2018-09-04T00:11:40.037Z,82.27
2018-09-04T00:12:40.023Z,82.08
2018-09-04T00:13:40.017Z,82.08
2018-09-04T00:14:40.039Z,82.08
2018-09-04T00:15:40.033Z,82.37
2018-09-04T00:16:39.984Z,82.27
2018-09-04T00:17:39.981Z,81.79
2018-09-04T00:18:39.975Z,81.50
2018-09-04T00:19:39.978Z,81.50
2018-09-04T00:20:39.988Z,81.50
2018-09-04T00:21:39.952Z,81.50
2018-09-04T00:22:39.938Z,82.46
2018-09-04T00:23:39.934Z,82.27
2018-09-04T00:24:39.927Z,82.17
2018-09-04T00:25:39.948Z,82.08
2018-09-04T00:26:39.911Z,82.17
2018-09-04T00:27:39.889Z,82.27
2018-09-04T00:28:39.890Z,82.27
2018-09-04T00:29:39.885Z,82.75
2018-09-04T00:30:39.903Z,81.88
2018-09-04T00:31:39.873Z,83.33
2018-09-04T00:32:39.863Z,82.85
2018-09-04T00:33:39.847Z,82.85
2018-09-04T00:34:39.850Z,82.94
2018-09-04T00:35:39.862Z,83.23
2018-09-04T00:36:39.829Z,83.42
2018-09-04T00:37:39.846Z,83.14
2018-09-04T00:38:39.812Z,83.14
2018-09-04T00:39:39.800Z,83.42
2018-09-04T00:40:39.791Z,83.72
2018-09-04T00:41:39.788Z,83.19
2018-09-04T00:42:39.767Z,83.62
2018-09-04T00:43:39.760Z,83.52
2018-09-04T00:44:39.753Z,82.85
2018-09-04T00:45:39.742Z,83.00
2018-09-04T00:46:39.737Z,83.72
2018-09-04T00:47:39.731Z,83.33
2018-09-04T00:48:39.707Z,83.23
2018-09-04T00:49:39.700Z,83.00
2018-09-04T00:50:39.700Z,83.52
2018-09-04T00:51:39.713Z,82.90
2018-09-04T00:52:39.715Z,83.04
2018-09-04T00:53:39.677Z,82.75
2018-09-04T00:54:39.671Z,83.58
2018-09-04T00:55:39.662Z,83.14
2018-09-04T00:56:39.648Z,82.94
2018-09-04T00:57:39.658Z,83.00
2018-09-04T00:58:39.628Z,82.94
2018-09-04T00:59:39.622Z,83.14
2018-09-04T01:00:39.607Z,83.19
2018-09-04T01:01:39.597Z,82.71
2018-09-04T01:02:39.633Z,82.46
2018-09-04T01:03:39.598Z,82.90
2018-09-04T01:04:39.582Z,82.75
2018-09-04T01:05:39.569Z,82.32
2018-09-04T01:06:39.555Z,82.27
2018-09-04T01:07:39.609Z,82.37
2018-09-04T01:08:39.538Z,82.71
2018-09-04T01:09:39.539Z,83.33
2018-09-04T01:10:39.530Z,82.75
2018-09-04T01:11:39.520Z,83.00
2018-09-04T01:12:39.504Z,83.09
2018-09-04T01:13:39.536Z,83.29
2018-09-04T01:14:39.490Z,83.29
2018-09-04T01:15:39.489Z,83.58
2018-09-04T01:16:39.473Z,83.09
2018-09-04T01:17:39.496Z,83.09
2018-09-04T01:18:39.448Z,83.39
2018-09-04T01:19:39.446Z,83.09
2018-09-04T01:20:39.467Z,82.90
2018-09-04T01:21:39.434Z,82.90
2018-09-04T01:22:39.417Z,83.00
2018-09-04T01:23:39.482Z,82.71
2018-09-04T01:24:39.409Z,83.00
2018-09-04T01:25:39.384Z,82.81
2018-09-04T01:26:39.385Z,82.81
2018-09-04T01:27:39.372Z,82.81
2018-09-04T01:28:39.361Z,83.09
2018-09-04T01:29:39.397Z,82.42
2018-09-04T01:30:39.342Z,82.61
2018-09-04T01:31:39.332Z,82.14
2018-09-04T01:32:39.332Z,81.84
2018-09-04T01:33:39.338Z,82.23
2018-09-04T01:34:39.341Z,82.32
2018-09-04T01:35:39.313Z,82.32
2018-09-04T01:36:39.298Z,82.04
2018-09-04T01:37:39.310Z,82.14
2018-09-04T01:38:39.272Z,81.65
2018-09-04T01:39:39.271Z,81.94
2018-09-04T01:40:39.264Z,82.04
2018-09-04T01:41:39.253Z,81.84
2018-09-04T01:42:39.269Z,81.75
2018-09-04T01:43:39.238Z,81.37
2018-09-04T01:44:39.227Z,81.65
2018-09-04T01:45:39.219Z,81.84
2018-09-04T01:46:39.201Z,81.65
2018-09-04T01:47:39.262Z,81.81
2018-09-04T01:48:39.193Z,81.81
2018-09-04T01:49:39.182Z,81.61
2018-09-04T01:50:39.176Z,81.71
2018-09-04T01:51:39.162Z,81.71
2018-09-04T01:52:39.160Z,81.61
2018-09-04T01:53:39.146Z,81.71
2018-09-04T01:54:39.168Z,81.42
2018-09-04T01:55:39.136Z,81.32
2018-09-04T01:56:39.118Z,81.23
2018-09-04T01:57:39.120Z,81.71
2018-09-04T01:58:39.095Z,81.23
2018-09-04T01:59:39.096Z,81.42
2018-09-04T02:00:39.115Z,81.32
2018-09-04T02:01:39.077Z,81.71
2018-09-04T02:02:39.063Z,81.99
2018-09-04T02:03:39.063Z,81.61
2018-09-04T02:04:39.054Z,82.09
2018-09-04T02:05:39.060Z,81.32
2018-09-04T02:06:39.031Z,81.23
2018-09-04T02:07:39.021Z,81.90
2018-09-04T02:08:39.023Z,81.71
2018-09-04T02:09:39.081Z,81.42
2018-09-04T02:10:38.989Z,81.52
2018-09-04T02:11:38.995Z,81.42
2018-09-04T02:12:38.972Z,81.52
2018-09-04T02:13:38.964Z,81.61
2018-09-04T02:14:38.963Z,81.32
2018-09-04T02:15:38.976Z,81.32
2018-09-04T02:16:38.935Z,81.71
2018-09-04T02:17:38.959Z,81.99
2018-09-04T02:18:38.921Z,81.90
2018-09-04T02:19:38.923Z,81.61
2018-09-04T02:20:38.895Z,81.04
2018-09-04T02:21:38.898Z,82.19
2018-09-04T02:22:38.941Z,81.90
2018-09-04T02:23:38.871Z,81.61
2018-09-04T02:24:38.862Z,81.13
2018-09-04T02:25:38.849Z,81.32
2018-09-04T02:26:38.854Z,81.61
2018-09-04T02:27:38.834Z,81.42
2018-09-04T02:28:38.828Z,81.23
2018-09-04T02:29:38.822Z,81.23
2018-09-04T02:30:38.812Z,80.99
2018-09-04T02:31:38.837Z,81.28
2018-09-04T02:32:38.792Z,81.38
2018-09-04T02:33:38.790Z,82.09
2018-09-04T02:34:38.766Z,81.48
2018-09-04T02:35:38.770Z,81.76
2018-09-04T02:36:38.752Z,81.76
2018-09-04T02:37:38.735Z,81.76
2018-09-04T02:38:38.727Z,81.48
2018-09-04T02:39:38.722Z,81.76
2018-09-04T02:40:38.774Z,81.28
2018-09-04T02:41:38.707Z,81.28
2018-09-04T02:42:38.701Z,81.48
2018-09-04T02:43:38.692Z,81.48
2018-09-04T02:44:38.681Z,81.28
2018-09-04T02:45:38.682Z,81.86
2018-09-04T02:46:38.699Z,81.48
2018-09-04T02:47:38.647Z,81.96
2018-09-04T02:48:38.644Z,81.57
2018-09-04T02:49:38.678Z,81.67
2018-09-04T02:50:38.650Z,81.28
2018-09-04T02:51:38.622Z,81.28
2018-09-04T02:52:38.595Z,82.05
2018-09-04T02:53:38.597Z,81.38
2018-09-04T02:54:38.594Z,81.48
2018-09-04T02:55:38.608Z,81.67
2018-09-04T02:56:38.567Z,81.76
2018-09-04T02:57:38.589Z,81.28
2018-09-04T02:58:38.572Z,82.05
2018-09-04T02:59:38.541Z,81.67
2018-09-04T03:00:38.526Z,81.38
2018-09-04T03:01:38.534Z,81.09
2018-09-04T03:02:38.545Z,81.57
2018-09-04T03:03:38.506Z,81.38
2018-09-04T03:04:38.493Z,81.53
2018-09-04T03:05:38.483Z,81.53
2018-09-04T03:06:38.473Z,81.63
2018-09-04T03:07:38.492Z,81.48
2018-09-04T03:08:38.824Z,81.38
2018-09-04T03:09:38.447Z,81.19
2018-09-04T03:10:38.439Z,81.24
2018-09-04T03:11:38.429Z,81.48
2018-09-04T03:12:38.416Z,81.43
2018-09-04T03:13:38.531Z,81.57
2018-09-04T03:14:38.432Z,81.53
2018-09-04T03:15:38.388Z,81.57
2018-09-04T03:16:38.374Z,81.92
2018-09-04T03:17:38.362Z,82.68
2018-09-04T03:18:38.361Z,82.97
2018-09-04T03:19:38.627Z,82.78
2018-09-04T03:20:38.339Z,83.64
2018-09-04T03:21:38.327Z,82.78
2018-09-04T03:22:38.330Z,82.87
2018-09-04T03:23:38.304Z,82.20
2018-09-04T03:24:38.293Z,81.82
2018-09-04T03:25:38.290Z,82.40
2018-09-04T03:26:38.282Z,81.92
2018-09-04T03:27:38.338Z,82.10
2018-09-04T03:28:38.258Z,82.01
2018-09-04T03:29:38.257Z,82.01
2018-09-04T03:30:38.246Z,81.72
2018-09-04T03:31:38.234Z,81.92
2018-09-04T03:32:38.224Z,81.53
2018-09-04T03:33:38.221Z,82.10
2018-09-04T03:34:38.211Z,82.10
2018-09-04T03:35:38.198Z,81.63
2018-09-04T03:36:38.188Z,81.72
2018-09-04T03:37:38.183Z,82.40
2018-09-04T03:38:38.171Z,81.82
2018-09-04T03:39:38.147Z,82.78
2018-09-04T03:40:38.146Z,82.30
2018-09-04T03:41:38.141Z,82.20
2018-09-04T03:42:38.163Z,81.53
2018-09-04T03:43:38.196Z,81.63
2018-09-04T03:44:38.116Z,81.53
2018-09-04T03:45:38.105Z,81.72
2018-09-04T03:46:38.095Z,81.24
2018-09-04T03:47:38.080Z,81.24
2018-09-04T03:48:38.074Z,81.24
2018-09-04T03:49:38.097Z,81.53
2018-09-04T03:50:38.047Z,81.34
2018-09-04T03:51:38.038Z,81.63
2018-09-04T03:52:38.036Z,81.53
2018-09-04T03:53:38.025Z,81.63
2018-09-04T03:54:38.071Z,81.53
2018-09-04T03:55:38.003Z,81.63
2018-09-04T03:56:37.994Z,81.24
2018-09-04T03:57:37.986Z,81.53
2018-09-04T03:58:37.968Z,81.53
2018-09-04T03:59:37.961Z,81.92
2018-09-04T04:00:37.959Z,81.92
2018-09-04T04:01:37.953Z,82.40
2018-09-04T04:02:37.937Z,82.97
2018-09-04T04:03:37.925Z,83.54
2018-09-04T04:04:38.293Z,83.80
2018-09-04T04:05:37.913Z,83.70
2018-09-04T04:06:37.898Z,83.12
2018-09-04T04:07:37.882Z,83.12
2018-09-04T04:08:37.878Z,82.26
2018-09-04T04:09:37.871Z,82.93
2018-09-04T04:10:37.870Z,82.54
2018-09-04T04:11:37.853Z,82.87
2018-09-04T04:12:37.834Z,82.35
2018-09-04T04:13:37.831Z,81.82
2018-09-04T04:14:37.817Z,81.68
2018-09-04T04:15:37.838Z,81.63
2018-09-04T04:16:37.830Z,81.63
2018-09-04T04:17:37.793Z,81.72
2018-09-04T04:18:37.785Z,81.82
2018-09-04T04:19:37.763Z,81.63
2018-09-04T04:20:37.765Z,81.24
2018-09-04T04:21:37.786Z,81.34
2018-09-04T04:22:37.748Z,81.24
2018-09-04T04:23:37.732Z,81.53
2018-09-04T04:24:37.723Z,81.43
2018-09-04T04:25:37.713Z,80.66
2018-09-04T04:26:37.740Z,80.86
2018-09-04T04:27:37.694Z,81.15
2018-09-04T04:28:37.692Z,81.05
2018-09-04T04:29:37.672Z,81.05
2018-09-04T04:30:37.653Z,80.76
2018-09-04T04:31:37.680Z,80.96
2018-09-04T04:32:37.641Z,81.05
2018-09-04T04:33:37.628Z,80.66
2018-09-04T04:34:37.620Z,81.15
2018-09-04T04:35:37.609Z,81.05
2018-09-04T04:36:37.595Z,81.15
2018-09-04T04:37:37.605Z,80.96
2018-09-04T04:38:37.592Z,80.66
2018-09-04T04:39:37.577Z,80.96
2018-09-04T04:40:37.568Z,81.05
2018-09-04T04:41:37.593Z,81.15
2018-09-04T04:42:37.543Z,81.15
2018-09-04T04:43:37.541Z,80.96
2018-09-04T04:44:37.519Z,81.05
2018-09-04T04:45:37.516Z,80.86
2018-09-04T04:46:37.510Z,81.24
2018-09-04T04:47:37.532Z,81.15
2018-09-04T04:48:37.490Z,81.05
2018-09-04T04:49:37.473Z,81.05
2018-09-04T04:50:37.466Z,80.96
2018-09-04T04:51:37.461Z,81.15
2018-09-04T04:52:37.482Z,81.15
2018-09-04T04:53:37.436Z,80.28
2018-09-04T04:54:37.432Z,80.38
2018-09-04T04:55:37.421Z,80.57
2018-09-04T04:56:37.403Z,80.57
2018-09-04T04:57:37.755Z,80.28
2018-09-04T04:58:37.396Z,80.86
2018-09-04T04:59:37.380Z,81.15
2018-09-04T05:00:37.375Z,80.38
2018-09-04T05:01:37.362Z,80.28
2018-09-04T05:02:37.357Z,80.96
2018-09-04T05:03:37.375Z,81.34
2018-09-04T05:04:37.325Z,81.05
2018-09-04T05:05:37.326Z,81.15
2018-09-04T05:06:37.323Z,81.24
2018-09-04T05:07:37.335Z,80.09
2018-09-04T05:08:37.307Z,80.38
2018-09-04T05:09:37.295Z,80.28
2018-09-04T05:10:37.285Z,80.38
2018-09-04T05:11:37.351Z,80.09
2018-09-04T05:12:37.262Z,80.38
2018-09-04T05:13:37.239Z,80.19
2018-09-04T05:14:37.241Z,80.57
2018-09-04T05:15:37.224Z,80.86
2018-09-04T05:16:37.225Z,81.05
2018-09-04T05:17:37.211Z,81.15
2018-09-04T05:18:37.203Z,80.38
2018-09-04T05:19:37.241Z,80.57
2018-09-04T05:20:37.172Z,80.28
2018-09-04T05:21:37.178Z,80.28
2018-09-04T05:22:37.243Z,80.38
2018-09-04T05:23:37.154Z,79.99
2018-09-04T05:24:37.143Z,80.09
2018-09-04T05:25:37.160Z,80.19
2018-09-04T05:26:37.119Z,80.04
2018-09-04T05:27:37.113Z,80.13
2018-09-04T05:28:37.106Z,80.13
2018-09-04T05:29:37.340Z,80.42
2018-09-04T05:30:37.089Z,80.04
2018-09-04T05:31:37.079Z,80.13
2018-09-04T05:32:37.066Z,80.61
2018-09-04T05:33:37.061Z,80.76
2018-09-04T05:34:37.083Z,80.32
2018-09-04T05:35:37.038Z,79.99
2018-09-04T05:36:37.075Z,80.19
2018-09-04T05:37:37.017Z,80.38
2018-09-04T05:38:37.012Z,81.15
2018-09-04T05:39:37.029Z,81.09
2018-09-04T05:40:37.020Z,80.19
2018-09-04T05:41:36.981Z,80.28
2018-09-04T05:42:36.974Z,80.47
2018-09-04T05:43:36.964Z,80.61
2018-09-04T05:44:36.952Z,81.15
2018-09-04T05:45:36.947Z,80.61
2018-09-04T05:46:36.937Z,80.28
2018-09-04T05:47:36.918Z,80.71
2018-09-04T05:48:36.919Z,79.94
2018-09-04T05:49:36.939Z,79.84
2018-09-04T05:50:36.926Z,80.42
2018-09-04T05:51:36.887Z,80.80
2018-09-04T05:52:36.869Z,80.99
2018-09-04T05:53:36.868Z,80.51
2018-09-04T05:54:36.882Z,80.61
2018-09-04T05:55:36.851Z,80.99
2018-09-04T05:56:36.837Z,80.61
2018-09-04T05:57:36.836Z,80.90
2018-09-04T05:58:36.823Z,82.05
2018-09-04T05:59:36.806Z,81.57
2018-09-04T06:00:36.801Z,81.67
2018-09-04T06:01:36.791Z,81.57
2018-09-04T06:02:36.783Z,81.76
2018-09-04T06:03:36.768Z,81.38
2018-09-04T06:04:36.810Z,81.09
2018-09-04T06:05:36.748Z,81.09
2018-09-04T06:06:36.739Z,80.99
2018-09-04T06:07:36.739Z,80.99
2018-09-04T06:08:36.717Z,81.09
2018-09-04T06:09:36.720Z,81.19
2018-09-04T06:10:36.712Z,80.51
2018-09-04T06:11:36.707Z,80.99
2018-09-04T06:12:36.703Z,80.99
2018-09-04T06:13:36.692Z,81.09
2018-09-04T06:14:36.667Z,81.28
2018-09-04T06:15:36.730Z,80.80
2018-09-04T06:16:36.646Z,81.57
2018-09-04T06:17:36.642Z,81.48
2018-09-04T06:18:36.626Z,81.28
2018-09-04T06:19:36.624Z,81.48
2018-09-04T06:20:36.614Z,81.76
2018-09-04T06:21:36.636Z,81.57
2018-09-04T06:22:36.593Z,81.57
2018-09-04T06:23:36.590Z,81.28
2018-09-04T06:24:36.569Z,81.96
2018-09-04T06:25:36.558Z,81.96
2018-09-04T06:26:36.593Z,81.67
2018-09-04T06:27:36.578Z,81.57
2018-09-04T06:28:36.543Z,81.86
2018-09-04T06:29:36.600Z,81.57
2018-09-04T06:30:36.526Z,81.61
2018-09-04T06:31:36.504Z,81.71
2018-09-04T06:32:36.507Z,81.99
2018-09-04T06:33:36.521Z,83.06
2018-09-04T06:34:36.512Z,83.06
2018-09-04T06:35:36.487Z,83.25
2018-09-04T06:36:36.581Z,83.15
2018-09-04T06:37:36.461Z,82.96
2018-09-04T06:38:36.456Z,82.96
2018-09-04T06:39:36.442Z,82.29
2018-09-04T06:40:36.488Z,81.99
2018-09-04T06:41:36.423Z,82.38
2018-09-04T06:42:36.416Z,82.09
2018-09-04T06:43:36.404Z,81.99
2018-09-04T06:44:36.398Z,83.06
2018-09-04T06:45:36.386Z,83.44
2018-09-04T06:46:36.453Z,83.53
2018-09-04T06:47:36.382Z,84.54
2018-09-04T06:48:36.361Z,84.50
2018-09-04T06:49:36.353Z,84.40
2018-09-04T06:50:36.337Z,84.30
2018-09-04T06:51:36.342Z,84.50
2018-09-04T06:52:36.333Z,84.50
2018-09-04T06:53:36.314Z,85.07
2018-09-04T06:54:36.350Z,84.98
2018-09-04T06:55:36.288Z,84.40
2018-09-04T06:56:36.295Z,84.30
2018-09-04T06:57:36.347Z,84.11
2018-09-04T06:58:36.269Z,84.40
2018-09-04T06:59:36.425Z,84.44
2018-09-04T07:00:36.261Z,84.63
2018-09-04T07:01:36.241Z,84.44
2018-09-04T07:02:36.242Z,85.31
2018-09-04T07:03:36.266Z,85.31
2018-09-04T07:04:36.236Z,85.50
2018-09-04T07:05:36.220Z,85.31
2018-09-04T07:06:36.209Z,84.92
2018-09-04T07:07:36.197Z,85.40
2018-09-04T07:08:36.195Z,84.83
2018-09-04T07:09:36.190Z,85.31
2018-09-04T07:10:36.185Z,86.08
2018-09-04T07:11:36.173Z,86.27
2018-09-04T07:12:36.184Z,86.27
2018-09-04T07:13:36.147Z,86.27
2018-09-04T07:14:36.146Z,85.88
2018-09-04T07:15:36.169Z,86.27
2018-09-04T07:16:36.128Z,86.08
2018-09-04T07:17:36.112Z,85.69
2018-09-04T07:18:36.110Z,85.02
2018-09-04T07:19:36.096Z,85.11
2018-09-04T07:20:36.083Z,85.31
2018-09-04T07:21:36.088Z,85.21
2018-09-04T07:22:36.078Z,85.31
2018-09-04T07:23:36.064Z,85.31
2018-09-04T07:24:36.063Z,85.02
2018-09-04T07:25:36.052Z,85.50
2018-09-04T07:26:36.048Z,85.02
2018-09-04T07:27:36.038Z,85.69
2018-09-04T07:28:36.015Z,85.44
2018-09-04T07:29:36.074Z,85.64
2018-09-04T07:30:35.997Z,85.54
2018-09-04T07:31:35.999Z,85.35
2018-09-04T07:32:35.980Z,84.77
2018-09-04T07:33:35.973Z,84.87
2018-09-04T07:34:35.971Z,84.97
2018-09-04T07:35:35.984Z,84.87
2018-09-04T07:36:35.961Z,84.87
2018-09-04T07:37:35.954Z,84.72
2018-09-04T07:38:35.933Z,84.14
2018-09-04T07:39:35.981Z,83.95
2018-09-04T07:40:35.928Z,83.81
2018-09-04T07:41:35.926Z,83.85
2018-09-04T07:42:35.904Z,83.18
2018-09-04T07:43:35.895Z,83.85
2018-09-04T07:44:35.926Z,82.98
2018-09-04T07:45:35.910Z,83.18
2018-09-04T07:46:35.872Z,83.37
2018-09-04T07:47:35.865Z,83.66
2018-09-04T07:48:35.862Z,82.98
2018-09-04T07:49:35.851Z,83.18
2018-09-04T07:50:35.892Z,82.98
2018-09-04T07:51:35.833Z,82.79
2018-09-04T07:52:35.815Z,82.83
2018-09-04T07:53:35.834Z,82.79
2018-09-04T07:54:35.812Z,82.70
2018-09-04T07:55:35.807Z,82.70
2018-09-04T07:56:35.807Z,82.89
2018-09-04T07:57:35.791Z,82.31
2018-09-04T07:58:35.787Z,82.50
2018-09-04T07:59:35.760Z,81.87
2018-09-04T08:00:35.756Z,81.96
2018-09-04T08:01:35.755Z,82.16
2018-09-04T08:02:35.773Z,82.35
2018-09-04T08:03:35.739Z,82.16
2018-09-04T08:04:35.731Z,81.96
2018-09-04T08:05:35.725Z,82.35
2018-09-04T08:06:35.727Z,82.16
2018-09-04T08:07:35.704Z,82.35
2018-09-04T08:08:35.700Z,81.58
2018-09-04T08:09:35.702Z,82.35
2018-09-04T08:10:35.683Z,82.35
2018-09-04T08:11:35.680Z,81.58
2018-09-04T08:12:35.673Z,81.96
2018-09-04T08:13:35.662Z,82.49
2018-09-04T08:14:35.654Z,81.91
2018-09-04T08:15:35.643Z,81.81
2018-09-04T08:16:35.709Z,81.72
2018-09-04T08:17:35.628Z,81.81
2018-09-04T08:18:35.628Z,81.04
2018-09-04T08:19:35.616Z,81.24
2018-09-04T08:20:35.645Z,80.94
2018-09-04T08:21:35.604Z,81.04
2018-09-04T08:22:36.710Z,81.04
2018-09-04T08:23:35.580Z,80.85
2018-09-04T08:24:35.802Z,81.14
2018-09-04T08:25:35.565Z,81.33
2018-09-04T08:26:36.016Z,80.66
2018-09-04T08:27:35.608Z,80.69
2018-09-04T08:28:35.637Z,80.79
2018-09-04T08:29:35.555Z,80.51
2018-09-04T08:30:35.529Z,80.31
2018-09-04T08:31:35.860Z,80.16
2018-09-04T08:32:35.511Z,78.42
2018-09-04T08:33:35.536Z,78.17
2018-09-04T08:34:35.498Z,78.36
2018-09-04T08:35:35.489Z,77.36
2018-09-04T08:36:35.826Z,77.75
2018-09-04T08:37:35.516Z,78.42
2018-09-04T08:38:35.476Z,78.61
2018-09-04T08:39:35.774Z,78.03
2018-09-04T08:40:35.460Z,77.84
2018-09-04T08:41:35.451Z,77.94
2018-09-04T08:42:35.466Z,78.52
2018-09-04T08:43:35.474Z,78.13
2018-09-04T08:44:35.443Z,78.42
2018-09-04T08:45:35.420Z,76.98
2018-09-04T08:46:35.422Z,76.98
2018-09-04T08:47:35.410Z,76.72
2018-09-04T08:48:35.463Z,76.63
2018-09-04T08:49:35.400Z,75.95
2018-09-04T08:50:35.418Z,75.37
2018-09-04T08:51:35.388Z,75.85
2018-09-04T08:52:35.375Z,75.67
2018-09-04T08:53:35.388Z,76.43
2018-09-04T08:54:35.374Z,76.24
2018-09-04T08:55:35.388Z,75.67
2018-09-04T08:56:35.360Z,75.76
2018-09-04T08:57:35.354Z,76.30
2018-09-04T08:58:35.387Z,76.01
2018-09-04T08:59:35.335Z,76.01
2018-09-04T09:00:35.362Z,76.59
2018-09-04T09:01:35.323Z,76.50
2018-09-04T09:02:35.319Z,76.30
2018-09-04T09:03:35.363Z,76.10
2018-09-04T09:04:35.294Z,75.62
2018-09-04T09:05:35.343Z,76.68
2018-09-04T09:06:35.286Z,76.01
2018-09-04T09:07:35.285Z,75.72
2018-09-04T09:08:35.312Z,75.53
2018-09-04T09:09:35.296Z,75.14
2018-09-04T09:10:35.266Z,75.62
2018-09-04T09:11:35.262Z,76.01
2018-09-04T09:12:35.248Z,75.76
2018-09-04T09:13:35.247Z,75.27
2018-09-04T09:14:35.260Z,75.57
2018-09-04T09:15:35.259Z,75.27
2018-09-04T09:16:35.238Z,75.47
2018-09-04T09:17:35.215Z,75.18
2018-09-04T09:18:35.441Z,74.89
2018-09-04T09:19:35.206Z,74.79
2018-09-04T09:20:35.226Z,75.27
2018-09-04T09:21:35.204Z,75.37
2018-09-04T09:22:35.187Z,75.57
2018-09-04T09:23:35.182Z,75.27
2018-09-04T09:24:35.173Z,74.99
2018-09-04T09:25:35.238Z,75.09
2018-09-04T09:26:35.164Z,74.51
2018-09-04T09:27:35.147Z,73.73
2018-09-04T09:28:35.139Z,73.73
2018-09-04T09:29:35.133Z,74.21
2018-09-04T09:30:35.128Z,74.12
2018-09-04T09:31:35.130Z,74.12
2018-09-04T09:32:35.113Z,74.12
2018-09-04T09:33:35.115Z,74.31
2018-09-04T09:34:35.097Z,74.31
2018-09-04T09:35:35.098Z,73.93
2018-09-04T09:36:35.155Z,73.83
2018-09-04T09:37:35.092Z,73.15
2018-09-04T09:38:35.088Z,73.54
2018-09-04T09:39:35.075Z,73.73
2018-09-04T09:40:35.073Z,73.44
2018-09-04T09:41:35.099Z,73.73
2018-09-04T09:42:35.057Z,73.77
2018-09-04T09:43:35.060Z,73.58
2018-09-04T09:44:35.055Z,73.25
2018-09-04T09:45:35.034Z,73.00
2018-09-04T09:46:35.063Z,72.90
2018-09-04T09:47:35.047Z,73.48
2018-09-04T09:48:35.029Z,73.58
2018-09-04T09:49:35.013Z,73.00
2018-09-04T09:50:35.019Z,73.00
2018-09-04T09:51:34.996Z,72.22
2018-09-04T09:52:35.037Z,73.19
2018-09-04T09:53:35.169Z,72.32
2018-09-04T09:54:34.984Z,72.32
2018-09-04T09:55:34.978Z,73.00
2018-09-04T09:56:34.973Z,72.80
2018-09-04T09:57:35.026Z,72.90
2018-09-04T09:58:34.960Z,72.90
2018-09-04T09:59:35.061Z,72.71
2018-09-04T10:00:34.944Z,72.80
2018-09-04T10:01:34.993Z,72.52
2018-09-04T10:02:34.940Z,72.52
2018-09-04T10:03:34.984Z,72.52
2018-09-04T10:04:34.910Z,72.32
2018-09-04T10:05:34.915Z,72.61
2018-09-04T10:06:34.904Z,72.22
2018-09-04T10:07:34.932Z,71.26
2018-09-04T10:08:34.903Z,71.45
2018-09-04T10:09:34.924Z,71.84
2018-09-04T10:10:34.969Z,72.16
2018-09-04T10:11:34.881Z,72.42
2018-09-04T10:12:34.877Z,71.30
2018-09-04T10:13:34.865Z,71.68
2018-09-04T10:14:34.881Z,71.78
2018-09-04T10:15:34.889Z,71.78
2018-09-04T10:16:34.849Z,71.78
2018-09-04T10:17:34.841Z,71.14
2018-09-04T10:18:34.837Z,71.62
2018-09-04T10:19:34.831Z,71.14
2018-09-04T10:20:34.878Z,70.75
2018-09-04T10:21:34.810Z,70.65
2018-09-04T10:22:34.804Z,70.56
2018-09-04T10:23:34.807Z,70.65
2018-09-04T10:24:34.798Z,71.14
2018-09-04T10:25:34.798Z,71.52
2018-09-04T10:26:34.876Z,71.17
2018-09-04T10:27:34.796Z,70.78
2018-09-04T10:28:34.783Z,70.94
2018-09-04T10:29:34.795Z,70.07
2018-09-04T10:30:34.797Z,69.68
2018-09-04T10:31:34.758Z,69.10
2018-09-04T10:32:34.755Z,69.49
2018-09-04T10:33:34.753Z,70.07
2018-09-04T10:34:34.745Z,70.65
2018-09-04T10:35:34.751Z,70.75
2018-09-04T10:36:34.733Z,70.46
2018-09-04T10:37:34.733Z,70.75
2018-09-04T10:38:34.723Z,70.01
2018-09-04T10:39:34.850Z,69.78
2018-09-04T10:40:35.136Z,69.78
2018-09-04T10:41:34.700Z,69.62
2018-09-04T10:42:34.704Z,69.72
2018-09-04T10:43:34.706Z,68.85
2018-09-04T10:44:34.690Z,69.53
2018-09-04T10:45:34.688Z,69.68
2018-09-04T10:46:34.690Z,69.49
2018-09-04T10:47:34.684Z,70.10
2018-09-04T10:48:34.790Z,69.72
2018-09-04T10:49:34.661Z,68.82
2018-09-04T10:50:34.667Z,68.43
2018-09-04T10:51:34.691Z,68.66
2018-09-04T10:52:34.649Z,68.04
2018-09-04T10:53:34.652Z,68.43
2018-09-04T10:54:34.666Z,68.82
2018-09-04T10:55:34.655Z,68.82
2018-09-04T10:56:34.621Z,68.95
2018-09-04T10:57:34.638Z,68.85
2018-09-04T10:58:34.610Z,68.56
2018-09-04T10:59:34.606Z,68.17
2018-09-04T11:00:34.595Z,68.08
2018-09-04T11:01:34.601Z,68.56
2018-09-04T11:02:34.592Z,68.08
2018-09-04T11:03:34.968Z,67.91
2018-09-04T11:04:34.586Z,67.69
2018-09-04T11:05:34.578Z,67.40
2018-09-04T11:06:34.560Z,67.24
2018-09-04T11:07:34.568Z,67.69
2018-09-04T11:08:34.559Z,68.30
2018-09-04T11:09:34.893Z,68.40
2018-09-04T11:10:34.552Z,67.91
2018-09-04T11:11:34.539Z,67.53
2018-09-04T11:12:34.538Z,67.05
2018-09-04T11:13:34.527Z,67.14
2018-09-04T11:14:34.559Z,66.27
2018-09-04T11:15:34.526Z,66.75
2018-09-04T11:16:34.518Z,67.05
2018-09-04T11:17:34.519Z,66.95
2018-09-04T11:18:34.519Z,67.43
2018-09-04T11:19:34.533Z,66.95
2018-09-04T11:20:34.503Z,66.47
2018-09-04T11:21:34.491Z,67.24
2018-09-04T11:22:34.490Z,67.14
2018-09-04T11:23:34.491Z,67.08
2018-09-04T11:24:34.515Z,66.27
2018-09-04T11:25:34.479Z,66.47
2018-09-04T11:26:34.474Z,65.79
2018-09-04T11:27:34.462Z,65.01
2018-09-04T11:28:34.453Z,65.11
2018-09-04T11:29:34.519Z,65.69
2018-09-04T11:30:34.479Z,65.88
2018-09-04T11:31:34.444Z,65.40
2018-09-04T11:32:34.441Z,65.53
2018-09-04T11:33:34.430Z,65.11
2018-09-04T11:34:34.435Z,65.82
2018-09-04T11:35:34.481Z,65.14
2018-09-04T11:36:34.418Z,65.92
2018-09-04T11:37:34.415Z,66.11
2018-09-04T11:38:34.412Z,65.72
2018-09-04T11:39:34.400Z,64.85
2018-09-04T11:40:34.462Z,64.85
2018-09-04T11:41:34.405Z,63.79
2018-09-04T11:42:34.390Z,64.56
2018-09-04T11:43:34.433Z,64.85
2018-09-04T11:44:34.377Z,64.66
2018-09-04T11:45:34.374Z,63.89
2018-09-04T11:46:34.433Z,64.17
2018-09-04T11:47:34.364Z,63.79
2018-09-04T11:48:34.364Z,63.49
2018-09-04T11:49:34.358Z,63.31
2018-09-04T11:50:34.353Z,64.17
2018-09-04T11:51:34.350Z,63.11
2018-09-04T11:52:34.373Z,63.53
2018-09-04T11:53:34.336Z,63.53
2018-09-04T11:54:34.332Z,64.11
2018-09-04T11:55:34.327Z,63.24
2018-09-04T11:56:34.381Z,63.34
2018-09-04T11:57:34.319Z,62.95
2018-09-04T11:58:34.306Z,63.43
2018-09-04T11:59:34.318Z,64.20
2018-09-04T12:00:34.312Z,62.95
2018-09-04T12:01:34.300Z,62.75
2018-09-04T12:02:34.328Z,62.37
2018-09-04T12:03:34.291Z,62.46
2018-09-04T12:04:34.288Z,61.01
2018-09-04T12:05:34.292Z,61.49
2018-09-04T12:06:34.331Z,62.40
2018-09-04T12:07:34.304Z,62.01
2018-09-04T12:08:34.308Z,62.49
2018-09-04T12:09:34.261Z,62.40
2018-09-04T12:10:34.258Z,62.49
2018-09-04T12:11:34.255Z,62.79
2018-09-04T12:12:34.466Z,60.20
2018-09-04T12:13:34.255Z,61.36
2018-09-04T12:14:34.245Z,61.36
2018-09-04T12:15:34.238Z,61.17
2018-09-04T12:16:34.241Z,61.07
2018-09-04T12:17:34.231Z,59.91
2018-09-04T12:18:34.252Z,58.16
2018-09-04T12:19:34.217Z,58.45
2018-09-04T12:20:34.230Z,57.80
2018-09-04T12:21:34.224Z,60.23
2018-09-04T12:22:34.222Z,61.13
2018-09-04T12:23:34.254Z,62.04
2018-09-04T12:24:34.208Z,56.52
2018-09-04T12:25:34.215Z,55.07
2018-09-04T12:26:34.209Z,54.88
2018-09-04T12:27:34.213Z,55.27
2018-09-04T12:28:34.247Z,55.07
2018-09-04T12:29:34.212Z,55.46
2018-09-04T12:30:34.203Z,53.61
2018-09-04T12:31:34.202Z,53.22
2018-09-04T12:32:34.248Z,54.78
2018-09-04T12:33:34.186Z,53.88
2018-09-04T12:34:34.200Z,54.75
2018-09-04T12:35:34.181Z,55.53
2018-09-04T12:36:34.221Z,55.04
2018-09-04T12:37:34.183Z,54.85
2018-09-04T12:38:34.222Z,53.49
2018-09-04T12:39:34.178Z,53.97
2018-09-04T12:40:34.179Z,54.85
2018-09-04T12:41:34.174Z,55.33
2018-09-04T12:42:34.225Z,55.24
2018-09-04T12:43:34.526Z,54.94
2018-09-04T12:44:34.168Z,54.44
2018-09-04T12:45:34.174Z,54.24
2018-09-04T12:46:34.160Z,55.02
2018-09-04T12:47:34.171Z,55.41
2018-09-04T12:48:34.249Z,56.09
2018-09-04T12:49:34.195Z,56.74
2018-09-04T12:50:34.160Z,57.64
2018-09-04T12:51:34.156Z,57.73
2018-09-04T12:52:34.148Z,57.54